Sao Domingos do Maranhao, Brazil
Current Conditions -  °F | °C
As of 3:00 PM on Saturday 25 Oct 2014 (Local Time) from SBTE Reporting Station
Scattered Clouds Scattered Clouds  
Wind Chill: 99°   Ceiling: Unl
Heat Index: 100°   Visibility: 6mi
Dew Point: 63°   Wind: 6mph
Humidity: 30%   Direction: 110°ESE
Pressure: 29.71"   Gusts: NA
Location:  5.58°S, 44.39°W
Report Text: SBTE 251800Z 11005KT 9999 SCT040 37/17 Q1006
Loading
Personal Weather Stations






























Interactive Weather Map
Tropical Storm Tracking
New forecast layout! Learn more

10-Day Weather Forecast

Advertisements
Track Severe Weather on mobile